HEBA/HBE METAR and TAF weather

Enter ICAO airport designator
Station Type Date Time Source
HEBA METAR 2018/04/23 11:00 UTC NOAA

HEBA 231100Z 36010KT 9999 FEW020 22/10 Q1017 NOSIG


Station Type Date Time Source
HEBA Decoded METAR 2018/04/23 11:00 UTC NOAA

Alexandria Borg El Arab, Egypt (HEBA) 31-31N 030-10E
Apr 23, 2018 - 07:00 AM EDT / 2018.04.23 1100 UTC
Wind: from the N (360 degrees) at 12 MPH (10 KT):0
Visibility: greater than 7 mile(s):0
Sky conditions: mostly clear
Temperature: 71 F (22 C)
Dew Point: 50 F (10 C)
Relative Humidity: 46%
Pressure (altimeter): 30.03 in. Hg (1017 hPa)
ob: HEBA 231100Z 36010KT 9999 FEW020 22/10 Q1017 NOSIG
cycle: 11

Station Type Date Time Source
HEBA TAF 2018/04/23 12:48 UTC NOAA

TAF HEBA 231100Z 2312/2418 34011KT 9999 FEW020


Example: see airport list